Platinum, Alaska
Current Conditions -  °F | °C
As of 1:56 PM on Friday 28 Nov 2014 (Local Time) from PAPM Reporting Station
Clear Clear  
Wind Chill: 29°   Ceiling: Unl
Heat Index: 35°   Visibility: 10mi
Dew Point: 33°   Wind: 7mph
Humidity: 92%   Direction: 40°NE
Pressure: 30.05"   Gusts: NA
Location:  59°N, 161.81°W
Report Text: PAPM 282256Z AUTO 04006KT 10SM CLR 02/01 A3005 RMK AO2 TSNO T00160005 SLP177 $
Loading
Personal Weather Stations






























Interactive Weather Map New forecast layout! Learn more

10-Day Weather Forecast

Advertisements
Track Severe Weather on mobile